sensor_id;sensor_type;location;lat;lon;timestamp;temperature;humidity
17333;DHT22;8784;50.94667800;7.08448400;2022-09-09T00:00:19;18.10;99.90
17333;DHT22;8784;50.94667800;7.08448400;2022-09-09T00:02:55;18.10;99.90
17333;DHT22;8784;50.94667800;7.08448400;2022-09-09T00:05:31;18.10;99.90
17333;DHT22;8784;50.94667800;7.08448400;2022-09-09T00:08:00;18.20;99.90
17333;DHT22;8784;50.94667800;7.08448400;2022-09-09T00:10:32;18.20;99.90
17333;DHT22;8784;50.94667800;7.08448400;2022-09-09T00:13:05;18.30;99.90
17333;DHT22;8784;50.94667800;7.08448400;2022-09-09T00:15:42;18.30;99.90
17333;DHT22;8784;50.94667800;7.08448400;2022-09-09T00:18:17;18.30;99.90
17333;DHT22;8784;50.94667800;7.08448400;2022-09-09T00:20:49;18.30;99.90
17333;DHT22;8784;50.94667800;7.08448400;2022-09-09T00:23:25;18.30;99.90
17333;DHT22;8784;50.94667800;7.08448400;2022-09-09T00:26:02;18.20;99.90
17333;DHT22;8784;50.94667800;7.08448400;2022-09-09T00:28:32;18.10;99.90
17333;DHT22;8784;50.94667800;7.08448400;2022-09-09T00:31:11;18.10;99.90
17333;DHT22;8784;50.94667800;7.08448400;2022-09-09T00:33:38;18.10;99.90
17333;DHT22;8784;50.94667800;7.08448400;2022-09-09T00:36:12;18.10;99.90
17333;DHT22;8784;50.94667800;7.08448400;2022-09-09T00:38:43;18.10;99.90
17333;DHT22;8784;50.94667800;7.08448400;2022-09-09T00:41:17;18.00;99.90
17333;DHT22;8784;50.94667800;7.08448400;2022-09-09T00:43:53;18.10;99.90
17333;DHT22;8784;50.94667800;7.08448400;2022-09-09T00:46:38;18.00;99.90
17333;DHT22;8784;50.94667800;7.08448400;2022-09-09T00:49:15;18.00;99.90
17333;DHT22;8784;50.94667800;7.08448400;2022-09-09T00:51:54;17.90;99.90
17333;DHT22;8784;50.94667800;7.08448400;2022-09-09T00:54:38;17.90;99.90
17333;DHT22;8784;50.94667800;7.08448400;2022-09-09T00:57:21;17.90;99.90
17333;DHT22;8784;50.94667800;7.08448400;2022-09-09T00:59:52;17.80;99.90
17333;DHT22;8784;50.94667800;7.08448400;2022-09-09T01:02:28;17.70;99.90
17333;DHT22;8784;50.94667800;7.08448400;2022-09-09T01:05:00;17.70;99.90
17333;DHT22;8784;50.94667800;7.08448400;2022-09-09T01:07:28;17.70;99.90
17333;DHT22;8784;50.94667800;7.08448400;2022-09-09T01:09:56;17.80;99.90
17333;DHT22;8784;50.94667800;7.08448400;2022-09-09T01:12:28;17.80;99.90
17333;DHT22;8784;50.94667800;7.08448400;2022-09-09T01:15:04;17.80;99.90
17333;DHT22;8784;50.94667800;7.08448400;2022-09-09T01:17:48;17.80;99.90
17333;DHT22;8784;50.94667800;7.08448400;2022-09-09T01:20:20;17.70;99.90
17333;DHT22;8784;50.94667800;7.08448400;2022-09-09T01:23:02;17.70;99.90
17333;DHT22;8784;50.94667800;7.08448400;2022-09-09T01:26:09;17.70;99.90
17333;DHT22;8784;50.94667800;7.08448400;2022-09-09T01:28:39;17.70;99.90
17333;DHT22;8784;50.94667800;7.08448400;2022-09-09T01:31:09;17.70;99.90
17333;DHT22;8784;50.94667800;7.08448400;2022-09-09T01:33:38;17.70;99.90
17333;DHT22;8784;50.94667800;7.08448400;2022-09-09T01:36:08;17.70;99.90
17333;DHT22;8784;50.94667800;7.08448400;2022-09-09T01:38:36;17.70;99.90
17333;DHT22;8784;50.94667800;7.08448400;2022-09-09T01:41:04;17.70;99.90
17333;DHT22;8784;50.94667800;7.08448400;2022-09-09T01:43:32;17.70;99.90
17333;DHT22;8784;50.94667800;7.08448400;2022-09-09T01:46:00;17.70;99.90
17333;DHT22;8784;50.94667800;7.08448400;2022-09-09T01:48:28;17.70;99.90
17333;DHT22;8784;50.94667800;7.08448400;2022-09-09T01:50:55;17.70;99.90
17333;DHT22;8784;50.94667800;7.08448400;2022-09-09T01:53:22;17.70;99.90
17333;DHT22;8784;50.94667800;7.08448400;2022-09-09T01:56:00;17.60;99.90
17333;DHT22;8784;50.94667800;7.08448400;2022-09-09T01:58:37;17.50;99.90
17333;DHT22;8784;50.94667800;7.08448400;2022-09-09T02:01:17;17.50;99.90
17333;DHT22;8784;50.94667800;7.08448400;2022-09-09T02:03:52;17.50;99.90
17333;DHT22;8784;50.94667800;7.08448400;2022-09-09T02:06:26;17.50;99.90
17333;DHT22;8784;50.94667800;7.08448400;2022-09-09T02:08:56;17.50;99.90
17333;DHT22;8784;50.94667800;7.08448400;2022-09-09T02:11:26;17.50;99.90
17333;DHT22;8784;50.94667800;7.08448400;2022-09-09T02:13:58;17.60;99.90
17333;DHT22;8784;50.94667800;7.08448400;2022-09-09T02:16:29;17.60;99.90
17333;DHT22;8784;50.94667800;7.08448400;2022-09-09T02:19:01;17.70;99.90
17333;DHT22;8784;50.94667800;7.08448400;2022-09-09T02:21:31;17.70;99.90
17333;DHT22;8784;50.94667800;7.08448400;2022-09-09T02:24:03;17.70;99.90
17333;DHT22;8784;50.94667800;7.08448400;2022-09-09T02:26:34;17.80;99.90
17333;DHT22;8784;50.94667800;7.08448400;2022-09-09T02:29:08;17.80;99.90
17333;DHT22;8784;50.94667800;7.08448400;2022-09-09T02:31:37;17.80;99.90
17333;DHT22;8784;50.94667800;7.08448400;2022-09-09T02:34:05;17.80;99.90
17333;DHT22;8784;50.94667800;7.08448400;2022-09-09T02:36:37;17.80;99.90
17333;DHT22;8784;50.94667800;7.08448400;2022-09-09T02:39:05;17.80;99.90
17333;DHT22;8784;50.94667800;7.08448400;2022-09-09T02:41:36;17.80;99.90
17333;DHT22;8784;50.94667800;7.08448400;2022-09-09T02:44:10;17.90;99.90
17333;DHT22;8784;50.94667800;7.08448400;2022-09-09T02:46:51;17.90;99.90
17333;DHT22;8784;50.94667800;7.08448400;2022-09-09T02:49:28;17.90;99.90
17333;DHT22;8784;50.94667800;7.08448400;2022-09-09T02:52:01;17.90;99.90
17333;DHT22;8784;50.94667800;7.08448400;2022-09-09T02:54:30;17.90;99.90
17333;DHT22;8784;50.94667800;7.08448400;2022-09-09T02:57:03;17.90;99.90
17333;DHT22;8784;50.94667800;7.08448400;2022-09-09T02:59:34;17.90;99.90
17333;DHT22;8784;50.94667800;7.08448400;2022-09-09T03:02:01;17.80;99.90
17333;DHT22;8784;50.94667800;7.08448400;2022-09-09T03:04:28;17.80;99.90
17333;DHT22;8784;50.94667800;7.08448400;2022-09-09T03:06:55;17.80;99.90
17333;DHT22;8784;50.94667800;7.08448400;2022-09-09T03:09:22;17.80;99.90
17333;DHT22;8784;50.94667800;7.08448400;2022-09-09T03:11:49;17.70;99.90
17333;DHT22;8784;50.94667800;7.08448400;2022-09-09T03:14:16;17.80;99.90
17333;DHT22;8784;50.94667800;7.08448400;2022-09-09T03:16:47;17.80;99.90
17333;DHT22;8784;50.94667800;7.08448400;2022-09-09T03:19:14;17.80;99.90
17333;DHT22;8784;50.94667800;7.08448400;2022-09-09T03:21:41;17.80;99.90
17333;DHT22;8784;50.94667800;7.08448400;2022-09-09T03:24:08;17.80;99.90
17333;DHT22;8784;50.94667800;7.08448400;2022-09-09T03:26:35;17.80;99.90
17333;DHT22;8784;50.94667800;7.08448400;2022-09-09T03:29:03;17.80;99.90
17333;DHT22;8784;50.94667800;7.08448400;2022-09-09T03:31:32;17.80;99.90
17333;DHT22;8784;50.94667800;7.08448400;2022-09-09T03:34:00;17.70;99.90
17333;DHT22;8784;50.94667800;7.08448400;2022-09-09T03:36:27;17.70;99.90
17333;DHT22;8784;50.94667800;7.08448400;2022-09-09T03:38:55;17.70;99.90
17333;DHT22;8784;50.94667800;7.08448400;2022-09-09T03:41:22;17.70;99.90
17333;DHT22;8784;50.94667800;7.08448400;2022-09-09T03:43:49;17.70;99.90
17333;DHT22;8784;50.94667800;7.08448400;2022-09-09T03:46:16;17.70;99.90
17333;DHT22;8784;50.94667800;7.08448400;2022-09-09T03:48:43;17.70;99.90
17333;DHT22;8784;50.94667800;7.08448400;2022-09-09T03:51:11;17.70;99.90
17333;DHT22;8784;50.94667800;7.08448400;2022-09-09T03:53:39;17.70;99.90
17333;DHT22;8784;50.94667800;7.08448400;2022-09-09T03:56:06;17.80;99.90
17333;DHT22;8784;50.94667800;7.08448400;2022-09-09T03:58:34;17.70;99.90
17333;DHT22;8784;50.94667800;7.08448400;2022-09-09T04:01:03;17.70;99.90
17333;DHT22;8784;50.94667800;7.08448400;2022-09-09T04:03:31;17.70;99.90
17333;DHT22;8784;50.94667800;7.08448400;2022-09-09T04:05:59;17.70;99.90
17333;DHT22;8784;50.94667800;7.08448400;2022-09-09T04:08:29;17.70;99.90
17333;DHT22;8784;50.94667800;7.08448400;2022-09-09T04:10:57;17.70;99.90
17333;DHT22;8784;50.94667800;7.08448400;2022-09-09T04:13:25;17.70;99.90
17333;DHT22;8784;50.94667800;7.08448400;2022-09-09T04:15:52;17.70;99.90
17333;DHT22;8784;50.94667800;7.08448400;2022-09-09T04:18:20;17.70;99.90
17333;DHT22;8784;50.94667800;7.08448400;2022-09-09T04:20:47;17.70;99.90
17333;DHT22;8784;50.94667800;7.08448400;2022-09-09T04:23:15;17.80;99.90
17333;DHT22;8784;50.94667800;7.08448400;2022-09-09T04:25:46;17.80;99.90
17333;DHT22;8784;50.94667800;7.08448400;2022-09-09T04:28:14;17.80;99.90
17333;DHT22;8784;50.94667800;7.08448400;2022-09-09T04:30:42;17.90;99.90
17333;DHT22;8784;50.94667800;7.08448400;2022-09-09T04:33:10;17.90;99.90
17333;DHT22;8784;50.94667800;7.08448400;2022-09-09T04:35:37;17.90;99.90
17333;DHT22;8784;50.94667800;7.08448400;2022-09-09T04:38:05;17.90;99.90
17333;DHT22;8784;50.94667800;7.08448400;2022-09-09T04:40:33;17.80;99.90
17333;DHT22;8784;50.94667800;7.08448400;2022-09-09T04:43:02;17.80;99.90
17333;DHT22;8784;50.94667800;7.08448400;2022-09-09T04:45:30;17.80;99.90
17333;DHT22;8784;50.94667800;7.08448400;2022-09-09T04:47:57;17.80;99.90
17333;DHT22;8784;50.94667800;7.08448400;2022-09-09T04:50:25;17.70;99.90
17333;DHT22;8784;50.94667800;7.08448400;2022-09-09T04:52:51;17.70;99.90
17333;DHT22;8784;50.94667800;7.08448400;2022-09-09T04:55:18;17.80;99.90
17333;DHT22;8784;50.94667800;7.08448400;2022-09-09T04:57:45;17.80;99.90
17333;DHT22;8784;50.94667800;7.08448400;2022-09-09T05:00:15;17.80;99.90
17333;DHT22;8784;50.94667800;7.08448400;2022-09-09T05:02:42;17.80;99.90
17333;DHT22;8784;50.94667800;7.08448400;2022-09-09T05:05:09;17.70;99.90
17333;DHT22;8784;50.94667800;7.08448400;2022-09-09T05:07:36;17.70;99.90
17333;DHT22;8784;50.94667800;7.08448400;2022-09-09T05:10:04;17.70;99.90
17333;DHT22;8784;50.94667800;7.08448400;2022-09-09T05:12:31;17.70;99.90
17333;DHT22;8784;50.94667800;7.08448400;2022-09-09T05:14:58;17.70;99.90
17333;DHT22;8784;50.94667800;7.08448400;2022-09-09T05:17:26;17.70;99.90
17333;DHT22;8784;50.94667800;7.08448400;2022-09-09T05:19:54;17.70;99.90
17333;DHT22;8784;50.94667800;7.08448400;2022-09-09T05:22:21;17.70;99.90
17333;DHT22;8784;50.94667800;7.08448400;2022-09-09T05:24:48;17.60;99.90
17333;DHT22;8784;50.94667800;7.08448400;2022-09-09T05:27:16;17.50;99.90
17333;DHT22;8784;50.94667800;7.08448400;2022-09-09T05:29:43;17.50;99.90
17333;DHT22;8784;50.94667800;7.08448400;2022-09-09T05:32:10;17.50;99.90
17333;DHT22;8784;50.94667800;7.08448400;2022-09-09T05:34:38;17.40;99.90
17333;DHT22;8784;50.94667800;7.08448400;2022-09-09T05:37:05;17.30;99.90
17333;DHT22;8784;50.94667800;7.08448400;2022-09-09T05:39:33;17.20;99.90
17333;DHT22;8784;50.94667800;7.08448400;2022-09-09T05:42:01;17.00;99.90
17333;DHT22;8784;50.94667800;7.08448400;2022-09-09T05:44:30;17.00;99.90
17333;DHT22;8784;50.94667800;7.08448400;2022-09-09T05:46:57;16.90;99.90
17333;DHT22;8784;50.94667800;7.08448400;2022-09-09T05:49:24;16.90;99.90
17333;DHT22;8784;50.94667800;7.08448400;2022-09-09T05:51:52;16.90;99.90
17333;DHT22;8784;50.94667800;7.08448400;2022-09-09T05:54:19;17.00;99.90
17333;DHT22;8784;50.94667800;7.08448400;2022-09-09T05:56:46;17.10;99.90
17333;DHT22;8784;50.94667800;7.08448400;2022-09-09T05:59:15;17.20;99.90
17333;DHT22;8784;50.94667800;7.08448400;2022-09-09T06:01:42;17.30;99.90
17333;DHT22;8784;50.94667800;7.08448400;2022-09-09T06:04:08;17.40;99.90
17333;DHT22;8784;50.94667800;7.08448400;2022-09-09T06:06:37;17.50;99.90
17333;DHT22;8784;50.94667800;7.08448400;2022-09-09T06:09:08;17.60;99.90
17333;DHT22;8784;50.94667800;7.08448400;2022-09-09T06:11:37;17.60;99.90
17333;DHT22;8784;50.94667800;7.08448400;2022-09-09T06:14:05;17.60;99.90
17333;DHT22;8784;50.94667800;7.08448400;2022-09-09T06:16:33;17.70;99.90
17333;DHT22;8784;50.94667800;7.08448400;2022-09-09T06:19:00;17.70;99.90
17333;DHT22;8784;50.94667800;7.08448400;2022-09-09T06:21:29;17.80;99.90
17333;DHT22;8784;50.94667800;7.08448400;2022-09-09T06:23:59;17.80;99.90
17333;DHT22;8784;50.94667800;7.08448400;2022-09-09T06:26:29;17.80;99.90
17333;DHT22;8784;50.94667800;7.08448400;2022-09-09T06:28:57;17.80;99.90
17333;DHT22;8784;50.94667800;7.08448400;2022-09-09T06:31:26;17.90;99.90
17333;DHT22;8784;50.94667800;7.08448400;2022-09-09T06:33:56;18.00;99.90
17333;DHT22;8784;50.94667800;7.08448400;2022-09-09T06:36:25;18.00;99.90
17333;DHT22;8784;50.94667800;7.08448400;2022-09-09T06:38:52;18.10;99.90
17333;DHT22;8784;50.94667800;7.08448400;2022-09-09T06:41:20;18.10;99.90
17333;DHT22;8784;50.94667800;7.08448400;2022-09-09T06:43:49;18.20;99.90
17333;DHT22;8784;50.94667800;7.08448400;2022-09-09T06:46:17;18.20;99.90
17333;DHT22;8784;50.94667800;7.08448400;2022-09-09T06:48:46;18.40;99.90
17333;DHT22;8784;50.94667800;7.08448400;2022-09-09T06:51:14;18.50;99.90
17333;DHT22;8784;50.94667800;7.08448400;2022-09-09T06:53:43;18.70;99.90
17333;DHT22;8784;50.94667800;7.08448400;2022-09-09T06:56:22;19.40;99.90
17333;DHT22;8784;50.94667800;7.08448400;2022-09-09T06:58:51;20.10;99.90
17333;DHT22;8784;50.94667800;7.08448400;2022-09-09T07:01:19;20.70;99.90
17333;DHT22;8784;50.94667800;7.08448400;2022-09-09T07:03:47;21.00;99.90
17333;DHT22;8784;50.94667800;7.08448400;2022-09-09T07:06:18;21.40;99.90
17333;DHT22;8784;50.94667800;7.08448400;2022-09-09T07:08:48;21.80;99.90
17333;DHT22;8784;50.94667800;7.08448400;2022-09-09T07:11:16;22.30;99.90
17333;DHT22;8784;50.94667800;7.08448400;2022-09-09T07:13:43;22.50;99.90
17333;DHT22;8784;50.94667800;7.08448400;2022-09-09T07:16:13;22.90;99.90
17333;DHT22;8784;50.94667800;7.08448400;2022-09-09T07:18:41;23.20;99.90
17333;DHT22;8784;50.94667800;7.08448400;2022-09-09T07:21:10;22.90;99.90
17333;DHT22;8784;50.94667800;7.08448400;2022-09-09T07:23:38;22.70;99.90
17333;DHT22;8784;50.94667800;7.08448400;2022-09-09T07:26:08;22.60;99.90
17333;DHT22;8784;50.94667800;7.08448400;2022-09-09T07:28:36;22.60;99.60
17333;DHT22;8784;50.94667800;7.08448400;2022-09-09T07:31:04;22.50;99.30
17333;DHT22;8784;50.94667800;7.08448400;2022-09-09T07:33:34;22.40;99.10
17333;DHT22;8784;50.94667800;7.08448400;2022-09-09T07:36:04;22.30;98.90
17333;DHT22;8784;50.94667800;7.08448400;2022-09-09T07:38:31;22.00;98.40
17333;DHT22;8784;50.94667800;7.08448400;2022-09-09T07:41:04;21.90;98.20
17333;DHT22;8784;50.94667800;7.08448400;2022-09-09T07:43:31;21.90;97.90
17333;DHT22;8784;50.94667800;7.08448400;2022-09-09T07:45:59;21.80;97.60
17333;DHT22;8784;50.94667800;7.08448400;2022-09-09T07:48:26;21.80;97.20
17333;DHT22;8784;50.94667800;7.08448400;2022-09-09T07:51:04;21.70;97.20
17333;DHT22;8784;50.94667800;7.08448400;2022-09-09T07:53:32;21.70;97.00
17333;DHT22;8784;50.94667800;7.08448400;2022-09-09T07:56:03;21.60;96.90
17333;DHT22;8784;50.94667800;7.08448400;2022-09-09T07:58:30;21.50;96.80
17333;DHT22;8784;50.94667800;7.08448400;2022-09-09T08:00:57;21.40;96.70
17333;DHT22;8784;50.94667800;7.08448400;2022-09-09T08:03:25;21.30;96.60
17333;DHT22;8784;50.94667800;7.08448400;2022-09-09T08:05:52;21.20;96.60
17333;DHT22;8784;50.94667800;7.08448400;2022-09-09T08:08:20;21.10;96.70
17333;DHT22;8784;50.94667800;7.08448400;2022-09-09T08:10:47;21.00;96.60
17333;DHT22;8784;50.94667800;7.08448400;2022-09-09T08:13:14;20.80;96.60
17333;DHT22;8784;50.94667800;7.08448400;2022-09-09T08:15:42;20.70;96.60
17333;DHT22;8784;50.94667800;7.08448400;2022-09-09T08:18:09;20.60;96.50
17333;DHT22;8784;50.94667800;7.08448400;2022-09-09T08:20:37;20.50;96.50
17333;DHT22;8784;50.94667800;7.08448400;2022-09-09T08:23:04;20.50;96.40
17333;DHT22;8784;50.94667800;7.08448400;2022-09-09T08:25:32;20.40;96.40
17333;DHT22;8784;50.94667800;7.08448400;2022-09-09T08:28:00;20.30;96.40
17333;DHT22;8784;50.94667800;7.08448400;2022-09-09T08:30:27;20.30;96.30
17333;DHT22;8784;50.94667800;7.08448400;2022-09-09T08:32:54;20.20;96.30
17333;DHT22;8784;50.94667800;7.08448400;2022-09-09T08:35:21;20.20;96.30
17333;DHT22;8784;50.94667800;7.08448400;2022-09-09T08:37:47;20.20;96.10
17333;DHT22;8784;50.94667800;7.08448400;2022-09-09T08:40:21;20.20;95.90
17333;DHT22;8784;50.94667800;7.08448400;2022-09-09T08:42:53;20.20;95.70
17333;DHT22;8784;50.94667800;7.08448400;2022-09-09T08:45:29;20.20;95.80
17333;DHT22;8784;50.94667800;7.08448400;2022-09-09T08:48:15;20.20;95.60
17333;DHT22;8784;50.94667800;7.08448400;2022-09-09T08:50:45;20.40;95.50
17333;DHT22;8784;50.94667800;7.08448400;2022-09-09T08:53:18;20.60;95.80
17333;DHT22;8784;50.94667800;7.08448400;2022-09-09T08:55:48;20.70;95.10
17333;DHT22;8784;50.94667800;7.08448400;2022-09-09T08:58:19;20.70;95.00
17333;DHT22;8784;50.94667800;7.08448400;2022-09-09T09:01:20;20.80;94.60
17333;DHT22;8784;50.94667800;7.08448400;2022-09-09T09:03:58;20.80;94.10
17333;DHT22;8784;50.94667800;7.08448400;2022-09-09T09:06:39;20.80;94.50
17333;DHT22;8784;50.94667800;7.08448400;2022-09-09T09:09:13;20.80;94.10
17333;DHT22;8784;50.94667800;7.08448400;2022-09-09T09:11:48;20.80;94.20
17333;DHT22;8784;50.94667800;7.08448400;2022-09-09T09:14:19;20.90;94.20
17333;DHT22;8784;50.94667800;7.08448400;2022-09-09T09:16:51;21.10;94.10
17333;DHT22;8784;50.94667800;7.08448400;2022-09-09T09:19:19;21.20;93.90
17333;DHT22;8784;50.94667800;7.08448400;2022-09-09T09:21:52;21.60;93.70
17333;DHT22;8784;50.94667800;7.08448400;2022-09-09T09:24:23;22.10;93.60
17333;DHT22;8784;50.94667800;7.08448400;2022-09-09T09:26:54;22.40;93.00
17333;DHT22;8784;50.94667800;7.08448400;2022-09-09T09:29:25;22.80;92.60
17333;DHT22;8784;50.94667800;7.08448400;2022-09-09T09:31:55;22.90;91.90
17333;DHT22;8784;50.94667800;7.08448400;2022-09-09T09:34:23;22.90;91.70
17333;DHT22;8784;50.94667800;7.08448400;2022-09-09T09:36:54;22.70;91.40
17333;DHT22;8784;50.94667800;7.08448400;2022-09-09T09:39:26;22.40;91.10
17333;DHT22;8784;50.94667800;7.08448400;2022-09-09T09:41:53;22.10;91.00
17333;DHT22;8784;50.94667800;7.08448400;2022-09-09T09:44:25;21.90;91.10
17333;DHT22;8784;50.94667800;7.08448400;2022-09-09T09:46:53;21.60;91.20
17333;DHT22;8784;50.94667800;7.08448400;2022-09-09T09:49:31;21.50;91.30
17333;DHT22;8784;50.94667800;7.08448400;2022-09-09T09:52:00;21.40;91.60
17333;DHT22;8784;50.94667800;7.08448400;2022-09-09T09:54:29;21.20;91.30
17333;DHT22;8784;50.94667800;7.08448400;2022-09-09T09:57:06;21.00;91.20
17333;DHT22;8784;50.94667800;7.08448400;2022-09-09T09:59:36;20.90;91.30
17333;DHT22;8784;50.94667800;7.08448400;2022-09-09T10:02:20;20.80;91.40
17333;DHT22;8784;50.94667800;7.08448400;2022-09-09T10:05:00;20.80;91.20
17333;DHT22;8784;50.94667800;7.08448400;2022-09-09T10:07:28;20.70;91.50
17333;DHT22;8784;50.94667800;7.08448400;2022-09-09T10:09:56;20.70;91.60
17333;DHT22;8784;50.94667800;7.08448400;2022-09-09T10:12:33;20.80;91.60
17333;DHT22;8784;50.94667800;7.08448400;2022-09-09T10:15:19;20.80;91.40
17333;DHT22;8784;50.94667800;7.08448400;2022-09-09T10:17:55;20.80;91.40
17333;DHT22;8784;50.94667800;7.08448400;2022-09-09T10:20:32;20.90;91.50
17333;DHT22;8784;50.94667800;7.08448400;2022-09-09T10:23:08;20.90;91.50
17333;DHT22;8784;50.94667800;7.08448400;2022-09-09T10:25:52;20.90;91.40
17333;DHT22;8784;50.94667800;7.08448400;2022-09-09T10:28:36;20.90;91.20
17333;DHT22;8784;50.94667800;7.08448400;2022-09-09T10:31:17;20.90;91.00
17333;DHT22;8784;50.94667800;7.08448400;2022-09-09T10:33:50;20.90;90.80
17333;DHT22;8784;50.94667800;7.08448400;2022-09-09T10:36:20;20.80;90.80
17333;DHT22;8784;50.94667800;7.08448400;2022-09-09T10:38:52;20.80;90.90
17333;DHT22;8784;50.94667800;7.08448400;2022-09-09T10:41:24;20.70;90.80
17333;DHT22;8784;50.94667800;7.08448400;2022-09-09T10:44:15;20.70;90.80
17333;DHT22;8784;50.94667800;7.08448400;2022-09-09T10:46:58;20.70;90.80
17333;DHT22;8784;50.94667800;7.08448400;2022-09-09T10:49:50;20.80;90.70
17333;DHT22;8784;50.94667800;7.08448400;2022-09-09T10:52:26;20.80;90.40
17333;DHT22;8784;50.94667800;7.08448400;2022-09-09T10:54:59;20.80;90.40
17333;DHT22;8784;50.94667800;7.08448400;2022-09-09T10:57:31;20.80;90.40
17333;DHT22;8784;50.94667800;7.08448400;2022-09-09T11:00:04;20.70;90.40
17333;DHT22;8784;50.94667800;7.08448400;2022-09-09T11:02:34;20.80;90.30
17333;DHT22;8784;50.94667800;7.08448400;2022-09-09T11:05:04;20.80;90.40
17333;DHT22;8784;50.94667800;7.08448400;2022-09-09T11:07:37;20.80;90.30
17333;DHT22;8784;50.94667800;7.08448400;2022-09-09T11:10:12;20.90;90.30
17333;DHT22;8784;50.94667800;7.08448400;2022-09-09T11:12:43;21.00;90.10
17333;DHT22;8784;50.94667800;7.08448400;2022-09-09T11:15:18;21.00;90.20
17333;DHT22;8784;50.94667800;7.08448400;2022-09-09T11:17:50;21.00;89.90
17333;DHT22;8784;50.94667800;7.08448400;2022-09-09T11:20:20;21.20;89.40
17333;DHT22;8784;50.94667800;7.08448400;2022-09-09T11:22:50;21.30;88.50
17333;DHT22;8784;50.94667800;7.08448400;2022-09-09T11:25:22;21.50;89.20
17333;DHT22;8784;50.94667800;7.08448400;2022-09-09T11:28:06;21.60;88.80
17333;DHT22;8784;50.94667800;7.08448400;2022-09-09T11:30:49;21.60;87.80
17333;DHT22;8784;50.94667800;7.08448400;2022-09-09T11:33:41;21.60;87.70
17333;DHT22;8784;50.94667800;7.08448400;2022-09-09T11:36:27;21.50;87.00
17333;DHT22;8784;50.94667800;7.08448400;2022-09-09T11:39:07;21.40;87.40
17333;DHT22;8784;50.94667800;7.08448400;2022-09-09T11:41:41;21.40;87.00
17333;DHT22;8784;50.94667800;7.08448400;2022-09-09T11:44:11;21.40;87.20
17333;DHT22;8784;50.94667800;7.08448400;2022-09-09T11:46:39;21.40;86.90
17333;DHT22;8784;50.94667800;7.08448400;2022-09-09T11:49:27;21.40;86.80
17333;DHT22;8784;50.94667800;7.08448400;2022-09-09T11:51:57;21.30;85.60
17333;DHT22;8784;50.94667800;7.08448400;2022-09-09T11:54:31;21.30;86.10
17333;DHT22;8784;50.94667800;7.08448400;2022-09-09T11:56:58;21.40;85.80
17333;DHT22;8784;50.94667800;7.08448400;2022-09-09T11:59:28;21.40;85.90
17333;DHT22;8784;50.94667800;7.08448400;2022-09-09T12:01:57;21.40;85.70
17333;DHT22;8784;50.94667800;7.08448400;2022-09-09T12:04:32;21.40;85.60
17333;DHT22;8784;50.94667800;7.08448400;2022-09-09T12:07:02;21.40;85.50
17333;DHT22;8784;50.94667800;7.08448400;2022-09-09T12:09:45;21.50;86.10
17333;DHT22;8784;50.94667800;7.08448400;2022-09-09T12:12:25;21.50;85.50
17333;DHT22;8784;50.94667800;7.08448400;2022-09-09T12:14:59;21.50;84.80
17333;DHT22;8784;50.94667800;7.08448400;2022-09-09T12:17:27;21.50;85.20
17333;DHT22;8784;50.94667800;7.08448400;2022-09-09T12:20:08;21.50;85.20
17333;DHT22;8784;50.94667800;7.08448400;2022-09-09T12:22:44;21.50;84.70
17333;DHT22;8784;50.94667800;7.08448400;2022-09-09T12:25:20;21.40;84.50
17333;DHT22;8784;50.94667800;7.08448400;2022-09-09T12:28:02;21.40;84.60
17333;DHT22;8784;50.94667800;7.08448400;2022-09-09T12:30:34;21.40;84.40
17333;DHT22;8784;50.94667800;7.08448400;2022-09-09T12:33:10;21.40;84.50
17333;DHT22;8784;50.94667800;7.08448400;2022-09-09T12:35:42;21.40;84.40
17333;DHT22;8784;50.94667800;7.08448400;2022-09-09T12:38:14;21.40;84.40
17333;DHT22;8784;50.94667800;7.08448400;2022-09-09T12:40:42;21.40;84.30
17333;DHT22;8784;50.94667800;7.08448400;2022-09-09T12:43:20;21.40;84.10
17333;DHT22;8784;50.94667800;7.08448400;2022-09-09T12:45:47;21.50;84.40
17333;DHT22;8784;50.94667800;7.08448400;2022-09-09T12:48:17;21.40;83.90
17333;DHT22;8784;50.94667800;7.08448400;2022-09-09T12:50:49;21.40;83.90
17333;DHT22;8784;50.94667800;7.08448400;2022-09-09T12:53:22;21.40;83.80
17333;DHT22;8784;50.94667800;7.08448400;2022-09-09T12:55:54;21.40;83.70
17333;DHT22;8784;50.94667800;7.08448400;2022-09-09T12:58:23;21.40;83.70
17333;DHT22;8784;50.94667800;7.08448400;2022-09-09T13:00:52;21.30;83.30
17333;DHT22;8784;50.94667800;7.08448400;2022-09-09T13:03:22;21.30;83.10
17333;DHT22;8784;50.94667800;7.08448400;2022-09-09T13:05:53;21.30;83.30
17333;DHT22;8784;50.94667800;7.08448400;2022-09-09T13:08:20;21.30;83.30
17333;DHT22;8784;50.94667800;7.08448400;2022-09-09T13:10:49;21.40;83.50
17333;DHT22;8784;50.94667800;7.08448400;2022-09-09T13:13:22;21.40;83.50
17333;DHT22;8784;50.94667800;7.08448400;2022-09-09T13:15:51;21.60;83.50
17333;DHT22;8784;50.94667800;7.08448400;2022-09-09T13:18:22;21.70;83.30
17333;DHT22;8784;50.94667800;7.08448400;2022-09-09T13:20:51;21.80;83.40
17333;DHT22;8784;50.94667800;7.08448400;2022-09-09T13:23:19;21.90;82.80
17333;DHT22;8784;50.94667800;7.08448400;2022-09-09T13:25:54;22.00;82.70
17333;DHT22;8784;50.94667800;7.08448400;2022-09-09T13:28:23;21.90;82.50
17333;DHT22;8784;50.94667800;7.08448400;2022-09-09T13:30:58;22.00;82.80
17333;DHT22;8784;50.94667800;7.08448400;2022-09-09T13:33:33;22.10;82.40
17333;DHT22;8784;50.94667800;7.08448400;2022-09-09T13:36:06;22.30;81.90
17333;DHT22;8784;50.94667800;7.08448400;2022-09-09T13:38:36;22.40;81.50
17333;DHT22;8784;50.94667800;7.08448400;2022-09-09T13:41:05;22.50;81.60
17333;DHT22;8784;50.94667800;7.08448400;2022-09-09T13:43:36;22.60;81.50
17333;DHT22;8784;50.94667800;7.08448400;2022-09-09T13:46:06;22.70;81.70
17333;DHT22;8784;50.94667800;7.08448400;2022-09-09T13:48:54;22.70;81.50
17333;DHT22;8784;50.94667800;7.08448400;2022-09-09T13:51:33;22.80;81.10
17333;DHT22;8784;50.94667800;7.08448400;2022-09-09T13:54:03;22.70;80.80
17333;DHT22;8784;50.94667800;7.08448400;2022-09-09T13:56:31;22.60;81.00